Pagrindinis puslapis
METAR-TAF:

METAR-TAF

Oro uostai :

Rodas, Graikija

platuma: 36-24N, ilguma: 028-05E, Aukštis: 4 m

Dabartinis oras

Ataskaita buvo paskelbta 25 minutes, ne 23:20 UTC
Vėjas 4 kt iš Pietvakarių
Temperatūra 16°C
Drėgmė 88%
Slėgis 1012 hPa
Matomumas 10 km arba daugiau
Išsisklaidę debesys ne aukštis 2000 ft

METAR: LGRP 052320Z 22004KT 9999 SCT020 16/14 Q1012 NOSIG

Laikas: 02:45 (23:45 UTC)

Prognozė

Ataskaita buvo paskelbta 45 minutes, ne 23:00 UTC
Prognozė galioja nuo 06 metu 00 UTC su 06 metu 24 UTC
Vėjas 10 kt iš Pietvakarių
Matomumas 10 km arba daugiau
Išsisklaidę debesys ne aukštis 2000 ft
Su prošvaistėmis ne aukštis 5000 ft
Tikimybė 30% :
Laikinai
nuo 06 metu 09 UTC su 06 metu 15 UTC
Matomumas: 5000 m
Išsisklaidę debesys ne aukštis 1800 ft
Su prošvaistėmis ne aukštis 4000 ft
lietus

TAF: LGRP 052300Z 0600/0624 22010KT 9999 SCT020 BKN050 PROB30 TEMPO 0609/0615 5000 RA SCT018 BKN040

Orai ataskaitas ir orų prognozės (METAR, TAF).

turimą stotys yra geltonos ir raudonos taškus žemėlapyje.

Perkelti pele per norėdami pamatyti stoties vardą.

Tada spustelėkite, norėdami matyti oro stebėjimo ir prognozės.

Norėdami pakeisti žemėlapį: spustelėkite ant žalios mygtukų su juodo kryžiaus žemyn,; žalią mygtuką su brūkšneliu, jei norite nutolinti; arba žalių rodyklių gretimoms žemėlapius.


METAR-TAF: